Time;durP1;ratioP1;P1;durP2;ratioP2;P2;SDS_P1;SDS_P2;PMS_P1;PMS_P2;Temp;Humidity;BMP_temperature;BMP_pressure;BME280_temperature;BME280_humidity;BME280_pressure;Samples;Min_cycle;Max_cycle;Signal;HPM_P1;HPM_P2
2022/08/27 00:01:16;;;;;;;23.55;9.80;;;;;;;;;;4983165;28;20072;-83
2022/08/27 00:04:29;;;;;;;32.80;9.68;;;;;;;;;;4995107;28;20038;-83
2022/08/27 00:07:24;;;;;;;21.15;8.65;;;;;;;;;;4982533;28;20034;-83
2022/08/27 00:10:23;;;;;;;20.15;9.05;;;;;;;;;;5006520;28;20088;-83
2022/08/27 00:12:51;;;;;;;25.70;9.73;;;;;;;;;;4967059;28;20527;-83
2022/08/27 00:15:18;;;;;;;21.13;8.70;;;;;;;;;;4999884;28;20069;-83
2022/08/27 00:17:47;;;;;;;24.25;9.05;;;;;;;;;;4983149;28;20050;-83
2022/08/27 00:20:18;;;;;;;23.27;9.88;;;;;;;;;;4981549;28;20061;-84
2022/08/27 00:22:46;;;;;;;29.17;10.73;;;;;;;;;;5000630;28;20077;-83
2022/08/27 00:25:19;;;;;;;20.27;10.15;;;;;;;;;;4984596;28;20034;-83
2022/08/27 00:27:46;;;;;;;22.02;9.55;;;;;;;;;;4961506;28;20046;-83
2022/08/27 00:30:17;;;;;;;24.33;10.25;;;;;;;;;;4997900;28;20092;-83
2022/08/27 00:32:45;;;;;;;23.77;10.68;;;;;;;;;;4975152;28;20495;-84
2022/08/27 00:35:38;;;;;;;27.48;10.75;;;;;;;;;;4998887;28;20117;-83
2022/08/27 00:38:07;;;;;;;29.48;10.48;;;;;;;;;;4982310;28;20038;-83
2022/08/27 00:40:36;;;;;;;22.38;10.68;;;;;;;;;;4980804;28;20042;-83
2022/08/27 01:51:40;;;;;;;24.90;9.85;;;;;;;;;;4999465;28;19925;-83
2022/08/27 01:54:09;;;;;;;23.08;10.57;;;;;;;;;;4970449;28;20034;-83
2022/08/27 01:57:00;;;;;;;25.30;10.90;;;;;;;;;;4981375;28;20034;-83
2022/08/27 01:59:29;;;;;;;25.95;10.07;;;;;;;;;;4967912;28;20129;-83
2022/08/27 02:02:09;;;;;;;22.20;10.30;;;;;;;;;;4999240;28;20062;-84
2022/08/27 02:04:43;;;;;;;23.88;11.30;;;;;;;;;;4982376;28;20038;-83
2022/08/27 02:07:37;;;;;;;24.85;11.15;;;;;;;;;;4998026;28;20045;-83
2022/08/27 02:10:06;;;;;;;21.52;9.85;;;;;;;;;;4982202;28;20904;-83
2022/08/27 02:12:34;;;;;;;27.33;10.80;;;;;;;;;;4982040;28;20473;-83
2022/08/27 02:15:04;;;;;;;23.95;10.70;;;;;;;;;;4999466;28;20038;-84
2022/08/27 02:17:33;;;;;;;27.15;10.55;;;;;;;;;;4983892;28;20448;-83
2022/08/27 02:20:00;;;;;;;32.17;10.93;;;;;;;;;;4981946;28;20044;-83
2022/08/27 02:22:28;;;;;;;28.00;10.23;;;;;;;;;;4984828;28;20129;-84
2022/08/27 02:25:01;;;;;;;27.90;10.75;;;;;;;;;;4996866;28;20094;-83
2022/08/27 02:28:04;;;;;;;24.70;10.63;;;;;;;;;;4978414;28;20173;-83
2022/08/27 02:30:34;;;;;;;24.75;10.20;;;;;;;;;;4997167;28;20050;-83
2022/08/27 02:33:06;;;;;;;24.50;9.48;;;;;;;;;;4983239;28;20038;-84
2022/08/27 02:41:54;;;;;;;32.13;11.02;;;;;;;;;;4995473;28;20089;-84
2022/08/27 02:44:22;;;;;;;26.67;10.07;;;;;;;;;;4964033;28;20043;-84
2022/08/27 02:46:50;;;;;;;26.85;9.38;;;;;;;;;;4998542;28;20043;-84
2022/08/27 02:49:23;;;;;;;27.50;11.13;;;;;;;;;;4996503;28;20034;-84
2022/08/27 02:51:55;;;;;;;21.33;9.48;;;;;;;;;;4997826;28;20042;-84
2022/08/27 02:54:46;;;;;;;;;;;;;;;;;;5001032;28;20031;-84
2022/08/27 03:40:49;;;;;;;25.52;9.48;;;;;;;;;;4998390;28;20133;-84
2022/08/27 03:44:24;;;;;;;26.65;10.18;;;;;;;;;;4940770;29;20040;-83
2022/08/27 03:46:54;;;;;;;19.85;9.52;;;;;;;;;;4908586;29;20106;-83
2022/08/27 03:49:23;;;;;;;24.23;10.23;;;;;;;;;;4919098;29;20059;-83
2022/08/27 03:52:07;;;;;;;21.60;10.25;;;;;;;;;;4924679;29;20051;-83
2022/08/27 03:54:37;;;;;;;18.17;8.80;;;;;;;;;;4936495;29;20055;-83
2022/08/27 04:24:49;;;;;;;27.73;9.65;;;;;;;;;;4996699;28;20030;-83
2022/08/27 04:27:47;;;;;;;24.80;9.93;;;;;;;;;;4978710;28;20073;-83
2022/08/27 04:30:15;;;;;;;20.00;8.73;;;;;;;;;;4964303;28;20064;-83
2022/08/27 04:32:42;;;;;;;21.00;9.20;;;;;;;;;;4996441;28;20476;-83
2022/08/27 04:35:10;;;;;;;19.38;9.57;;;;;;;;;;4993889;28;20067;-83
2022/08/27 04:37:39;;;;;;;20.20;9.32;;;;;;;;;;4972119;28;20042;-83
2022/08/27 04:40:12;;;;;;;21.70;8.90;;;;;;;;;;4961445;28;20042;-84
2022/08/27 04:42:41;;;;;;;21.90;9.35;;;;;;;;;;4993825;28;20061;-83
2022/08/27 04:45:09;;;;;;;20.42;8.40;;;;;;;;;;4973666;28;20034;-83
2022/08/27 04:47:36;;;;;;;18.20;8.60;;;;;;;;;;4959922;28;20050;-83
2022/08/27 04:50:05;;;;;;;21.73;9.27;;;;;;;;;;4996166;28;20072;-83
2022/08/27 04:53:00;;;;;;;19.35;9.38;;;;;;;;;;4992931;28;20404;-83
2022/08/27 04:55:30;;;;;;;18.95;8.50;;;;;;;;;;4964382;28;20046;-83
2022/08/27 04:58:24;;;;;;;24.58;9.30;;;;;;;;;;4994485;28;20072;-84
2022/08/27 05:00:58;;;;;;;17.90;8.45;;;;;;;;;;4977212;28;20042;-84
2022/08/27 05:03:27;;;;;;;23.90;9.82;;;;;;;;;;4945100;28;20042;-84
2022/08/27 05:06:05;;;;;;;21.52;8.57;;;;;;;;;;4974549;28;20084;-84
2022/08/27 05:08:33;;;;;;;18.35;9.02;;;;;;;;;;4980289;28;20164;-84
2022/08/27 05:11:33;;;;;;;23.85;10.48;;;;;;;;;;4963431;28;20034;-84
2022/08/27 05:14:12;;;;;;;18.85;9.63;;;;;;;;;;4992230;28;20066;-84
2022/08/27 05:17:04;;;;;;;18.65;9.05;;;;;;;;;;4981684;28;20042;-84
2022/08/27 05:19:32;;;;;;;16.85;9.35;;;;;;;;;;4992393;28;20046;-82
2022/08/27 05:22:04;;;;;;;21.40;9.32;;;;;;;;;;4976160;28;20042;-82
2022/08/27 05:24:32;;;;;;;21.52;8.93;;;;;;;;;;4990846;28;20499;-84
2022/08/27 05:27:08;;;;;;;19.98;9.40;;;;;;;;;;4973817;28;20038;-83
2022/08/27 05:29:38;;;;;;;20.02;9.77;;;;;;;;;;4960192;28;20038;-83
2022/08/27 05:32:06;;;;;;;20.13;10.25;;;;;;;;;;4961553;28;20048;-82
2022/08/27 05:34:34;;;;;;;24.33;9.70;;;;;;;;;;4990123;28;20072;-82
2022/08/27 05:37:02;;;;;;;23.52;10.88;;;;;;;;;;4973455;28;20042;-82
2022/08/27 05:39:30;;;;;;;21.38;10.10;;;;;;;;;;5000089;28;20042;-83
2022/08/27 05:42:02;;;;;;;18.80;9.00;;;;;;;;;;4999503;28;20053;-82
2022/08/27 05:44:30;;;;;;;20.98;8.90;;;;;;;;;;4981812;28;20065;-83
2022/08/27 05:47:18;;;;;;;20.70;10.10;;;;;;;;;;4983322;28;20038;-82
2022/08/27 05:50:10;;;;;;;24.67;9.25;;;;;;;;;;4983064;28;20045;-82
2022/08/27 05:52:39;;;;;;;23.38;9.27;;;;;;;;;;4999403;28;20073;-82
2022/08/27 05:55:07;;;;;;;22.27;9.57;;;;;;;;;;5003073;28;20102;-82
2022/08/27 05:57:58;;;;;;;19.35;9.43;;;;;;;;;;4999072;28;20034;-82
2022/08/27 06:03:16;;;;;;;19.33;9.75;;;;;;;;;;4980533;28;20035;-83
2022/08/27 06:05:48;;;;;;;21.55;10.30;;;;;;;;;;4982544;28;20065;-83
2022/08/27 06:08:16;;;;;;;20.55;10.73;;;;;;;;;;4969790;28;20040;-82
2022/08/27 06:10:50;;;;;;;19.08;9.55;;;;;;;;;;4988735;28;20118;-82
2022/08/27 06:13:18;;;;;;;22.33;10.52;;;;;;;;;;4990373;28;20042;-83
2022/08/27 06:16:08;;;;;;;20.88;10.00;;;;;;;;;;4974973;28;20102;-81
2022/08/27 06:18:39;;;;;;;20.23;9.95;;;;;;;;;;4970387;28;20517;-82
2022/08/27 06:21:07;;;;;;;19.67;9.30;;;;;;;;;;4966377;28;20094;-83
2022/08/27 06:23:35;;;;;;;25.15;9.55;;;;;;;;;;4967483;28;20063;-84
2022/08/27 06:26:08;;;;;;;20.67;9.98;;;;;;;;;;4963877;28;20054;-84
2022/08/27 06:28:40;;;;;;;24.98;10.27;;;;;;;;;;4968607;28;20126;-83
2022/08/27 06:31:12;;;;;;;18.08;9.68;;;;;;;;;;4967786;28;20640;-83
2022/08/27 06:33:42;;;;;;;22.30;10.13;;;;;;;;;;4988061;28;20134;-82
2022/08/27 06:36:14;;;;;;;21.45;9.77;;;;;;;;;;4977656;28;20212;-83
2022/08/27 06:38:43;;;;;;;24.20;9.73;;;;;;;;;;4973709;28;20058;-84
2022/08/27 06:41:22;;;;;;;23.25;10.13;;;;;;;;;;4993229;28;20117;-82
2022/08/27 06:44:16;;;;;;;23.52;11.05;;;;;;;;;;4999985;28;20035;-82
2022/08/27 06:46:49;;;;;;;19.60;9.68;;;;;;;;;;4990825;28;21652;-83
2022/08/27 06:49:16;;;;;;;23.15;10.10;;;;;;;;;;4984516;28;20524;-83
2022/08/27 06:51:46;;;;;;;21.48;9.55;;;;;;;;;;4961583;28;20054;-83
2022/08/27 06:54:15;;;;;;;22.58;9.88;;;;;;;;;;4989518;28;20068;-85
2022/08/27 06:56:58;;;;;;;25.08;8.88;;;;;;;;;;4959300;28;20055;-84
2022/08/27 06:59:50;;;;;;;20.02;8.75;;;;;;;;;;4988304;28;20042;-85
2022/08/27 07:02:18;;;;;;;19.65;8.55;;;;;;;;;;4956749;28;20042;-83
2022/08/27 07:04:46;;;;;;;14.63;7.47;;;;;;;;;;4973735;28;20630;-84
2022/08/27 07:07:33;;;;;;;21.27;8.45;;;;;;;;;;4974994;28;20058;-85
2022/08/27 07:16:52;;;;;;;19.95;7.95;;;;;;;;;;4988232;28;20046;-84
2022/08/27 07:19:45;;;;;;;18.70;7.63;;;;;;;;;;4970636;28;20046;-84
2022/08/27 07:22:12;;;;;;;19.65;7.82;;;;;;;;;;4953231;28;20049;-84
2022/08/27 07:24:54;;;;;;;18.38;7.95;;;;;;;;;;4953165;28;20050;-84
2022/08/27 07:27:52;;;;;;;16.73;7.03;;;;;;;;;;4973376;28;20899;-86
2022/08/27 07:30:57;;;;;;;15.25;6.72;;;;;;;;;;4914276;29;20167;-85
2022/08/27 07:34:17;;;;;;;16.23;6.65;;;;;;;;;;4922923;29;20079;-86
2022/08/27 07:37:24;;;;;;;20.05;6.15;;;;;;;;;;4872919;29;21004;-85
2022/08/27 07:40:16;;;;;;;23.90;7.53;;;;;;;;;;4885680;29;20052;-85
2022/08/27 07:46:00;;;;;;;15.82;6.25;;;;;;;;;;4900663;29;20112;-84
2022/08/27 07:48:48;;;;;;;15.88;6.22;;;;;;;;;;4899270;29;20248;-84
2022/08/27 07:51:36;;;;;;;15.60;6.85;;;;;;;;;;4898482;29;20048;-85
2022/08/27 07:54:36;;;;;;;18.27;6.28;;;;;;;;;;4897221;29;20064;-84
2022/08/27 07:57:22;;;;;;;15.18;6.18;;;;;;;;;;4893431;29;20098;-85
2022/08/27 08:00:10;;;;;;;14.15;6.18;;;;;;;;;;4892552;29;20052;-84
2022/08/27 08:02:53;;;;;;;13.60;6.22;;;;;;;;;;4930448;29;20052;-84
2022/08/27 08:06:10;;;;;;;12.77;5.90;;;;;;;;;;4939205;29;20054;-84
2022/08/27 08:08:53;;;;;;;15.70;5.10;;;;;;;;;;4986107;28;20054;-84
2022/08/27 08:12:16;;;;;;;15.50;6.03;;;;;;;;;;4957569;28;20058;-85
2022/08/27 08:16:03;;;;;;;15.30;5.18;;;;;;;;;;4976427;28;20101;-85
2022/08/27 08:28:27;;;;;;;13.27;4.82;;;;;;;;;;4911603;29;19919;-85
2022/08/27 08:40:52;;;;;;;17.60;5.00;;;;;;;;;;4916108;29;20067;-84
2022/08/27 08:43:32;;;;;;;15.93;5.63;;;;;;;;;;4909555;29;20063;-84
2022/08/27 08:46:44;;;;;;;10.32;4.70;;;;;;;;;;4908946;29;20527;-84
2022/08/27 08:50:00;;;;;;;11.15;4.20;;;;;;;;;;4897315;29;20253;-84
2022/08/27 08:52:58;;;;;;;14.73;3.85;;;;;;;;;;4819030;29;20058;-85
2022/08/27 08:55:52;;;;;;;15.55;5.70;;;;;;;;;;4848430;29;20209;-85
2022/08/27 08:58:56;;;;;;;13.00;4.97;;;;;;;;;;4830383;29;20062;-86
2022/08/27 09:01:43;;;;;;;10.88;4.38;;;;;;;;;;4824550;29;20060;-86
2022/08/27 09:04:32;;;;;;;17.13;5.25;;;;;;;;;;4897454;29;20111;-86
2022/08/27 09:17:09;;;;;;;13.20;4.13;;;;;;;;;;4800503;29;20132;-87
2022/08/27 09:20:20;;;;;;;14.05;4.82;;;;;;;;;;4809203;29;20493;-87
2022/08/27 09:24:12;;;;;;;14.05;4.13;;;;;;;;;;4830442;29;20153;-86
2022/08/27 09:27:22;;;;;;;17.45;5.00;;;;;;;;;;4822625;29;20084;-86
2022/08/27 09:30:45;;;;;;;13.63;4.73;;;;;;;;;;4814872;29;20068;-84
2022/08/27 09:33:28;;;;;;;13.63;5.28;;;;;;;;;;4835471;29;20062;-84
2022/08/27 09:36:16;;;;;;;14.30;4.82;;;;;;;;;;4836787;29;20173;-84
2022/08/27 09:39:07;;;;;;;13.18;4.53;;;;;;;;;;4837263;29;20473;-84
2022/08/27 09:41:48;;;;;;;12.82;4.50;;;;;;;;;;4819959;29;20072;-85
2022/08/27 09:44:31;;;;;;;11.48;5.00;;;;;;;;;;4819780;29;20156;-86
2022/08/27 09:47:50;;;;;;;15.07;5.20;;;;;;;;;;4823526;29;20045;-84
2022/08/27 09:50:22;;;;;;;12.45;4.15;;;;;;;;;;4948052;28;20086;-84
2022/08/27 09:52:54;;;;;;;14.18;5.25;;;;;;;;;;4968631;28;20710;-84
2022/08/27 09:55:27;;;;;;;10.43;4.18;;;;;;;;;;4969591;28;20117;-84
2022/08/27 10:01:31;;;;;;;15.40;4.53;;;;;;;;;;4982099;28;20057;-84
2022/08/27 10:04:03;;;;;;;;;;;;;;;;;;5000066;28;20046;-83
2022/08/27 10:06:43;;;;;;;11.25;4.38;;;;;;;;;;4997246;28;19925;-82
2022/08/27 10:09:21;;;;;;;9.85;4.65;;;;;;;;;;4993902;28;20065;-82
2022/08/27 10:11:58;;;;;;;11.48;4.88;;;;;;;;;;4988327;28;20452;-83
2022/08/27 10:14:37;;;;;;;11.48;4.60;;;;;;;;;;4970605;28;20038;-84
2022/08/27 10:17:22;;;;;;;11.75;4.10;;;;;;;;;;4969882;28;20551;-83
2022/08/27 10:20:11;;;;;;;12.25;3.60;;;;;;;;;;4992103;28;20124;-83
2022/08/27 10:23:43;;;;;;;15.70;5.53;;;;;;;;;;4984043;28;20523;-83
2022/08/27 10:26:55;;;;;;;11.30;4.75;;;;;;;;;;4916225;29;20573;-83
2022/08/27 10:29:29;;;;;;;14.43;4.15;;;;;;;;;;4920838;29;20040;-83
2022/08/27 10:32:54;;;;;;;12.43;4.68;;;;;;;;;;4909755;29;20036;-82
2022/08/27 10:35:30;;;;;;;13.10;4.65;;;;;;;;;;4917704;29;20044;-83
2022/08/27 10:39:00;;;;;;;11.90;4.47;;;;;;;;;;4916083;29;20564;-83
2022/08/27 10:41:38;;;;;;;10.07;4.15;;;;;;;;;;4899939;29;20056;-82
2022/08/27 10:44:15;;;;;;;14.63;4.45;;;;;;;;;;4892019;29;20063;-84
2022/08/27 10:48:04;;;;;;;14.27;4.50;;;;;;;;;;4888746;29;20083;-83
2022/08/27 10:50:49;;;;;;;15.73;4.15;;;;;;;;;;4874663;29;20064;-82
2022/08/27 10:53:36;;;;;;;11.60;4.38;;;;;;;;;;4891938;29;20052;-83
2022/08/27 10:56:34;;;;;;;8.68;4.15;;;;;;;;;;4858423;29;20048;-84
2022/08/27 10:59:25;;;;;;;15.25;4.80;;;;;;;;;;4891332;29;20044;-83
2022/08/27 11:03:37;;;;;;;12.77;4.35;;;;;;;;;;4934501;28;20205;-82
2022/08/27 11:07:03;;;;;;;12.15;4.40;;;;;;;;;;4951783;28;20146;-82
2022/08/27 11:09:58;;;;;;;10.15;4.10;;;;;;;;;;4955433;28;20038;-82
2022/08/27 11:13:39;;;;;;;14.60;4.05;;;;;;;;;;4945370;28;20051;-82
2022/08/27 11:17:12;;;;;;;13.55;4.00;;;;;;;;;;4935820;28;20981;-84
2022/08/27 11:20:11;;;;;;;13.25;4.72;;;;;;;;;;4962826;28;20237;-83
2022/08/27 11:28:38;;;;;;;9.02;4.35;;;;;;;;;;4983711;28;20970;-84
2022/08/27 11:31:39;;;;;;;10.55;4.00;;;;;;;;;;4964506;28;20045;-84
2022/08/27 11:34:44;;;;;;;12.55;5.25;;;;;;;;;;4972699;28;21780;-83
2022/08/27 11:37:37;;;;;;;11.90;3.72;;;;;;;;;;4948226;28;20046;-84
2022/08/27 11:40:33;;;;;;;12.27;4.70;;;;;;;;;;4990886;28;20100;-83
2022/08/27 11:43:31;;;;;;;9.05;4.40;;;;;;;;;;4958399;28;20390;-84
2022/08/27 11:46:04;;;;;;;13.63;4.53;;;;;;;;;;4947979;28;20430;-84
2022/08/27 11:48:57;;;;;;;;;;;;;;;;;;4982047;28;20150;-84
2022/08/27 11:51:35;;;;;;;12.98;4.38;;;;;;;;;;4981381;28;19929;-84
2022/08/27 11:54:50;;;;;;;12.38;4.30;;;;;;;;;;4960910;28;20030;-84
2022/08/27 11:57:35;;;;;;;12.32;4.13;;;;;;;;;;4941443;28;20069;-83
2022/08/27 12:00:16;;;;;;;9.48;3.75;;;;;;;;;;4956513;28;20050;-83
2022/08/27 12:02:59;;;;;;;10.65;3.50;;;;;;;;;;4963679;28;20046;-85
2022/08/27 12:05:44;;;;;;;;;;;;;;;;;;4980363;28;20193;-83
2022/08/27 12:08:30;;;;;;;7.28;3.13;;;;;;;;;;4982737;28;19925;-84
2022/08/27 12:12:02;;;;;;;7.40;2.60;;;;;;;;;;4936903;28;20050;-86
2022/08/27 12:15:12;;;;;;;8.98;2.38;;;;;;;;;;4986443;28;20053;-86
2022/08/27 12:18:01;;;;;;;14.02;2.70;;;;;;;;;;4937309;28;20149;-85
2022/08/27 12:21:36;;;;;;;9.13;2.05;;;;;;;;;;4984236;28;20161;-85
2022/08/27 12:25:00;;;;;;;9.23;2.22;;;;;;;;;;4917512;29;20688;-84
2022/08/27 12:34:12;;;;;;;7.45;2.38;;;;;;;;;;4902554;29;20039;-86
2022/08/27 12:39:13;;;;;;;7.53;2.28;;;;;;;;;;4790066;29;20785;-85
2022/08/27 12:43:53;;;;;;;7.93;2.30;;;;;;;;;;4782388;29;20479;-85
2022/08/27 12:46:43;;;;;;;8.18;2.65;;;;;;;;;;4772025;30;20059;-84
2022/08/27 12:49:16;;;;;;;7.05;2.53;;;;;;;;;;4773642;29;20059;-84
2022/08/27 12:52:23;;;;;;;;;;;;;;;;;;4774657;30;20259;-84
2022/08/27 12:55:07;;;;;;;6.30;2.05;;;;;;;;;;4772981;29;19929;-84
2022/08/27 12:58:06;;;;;;;7.18;2.15;;;;;;;;;;4763531;30;20997;-84
2022/08/27 13:00:51;;;;;;;;;;;;;;;;;;4774656;29;20074;-85
2022/08/27 13:03:30;;;;;;;10.50;2.80;;;;;;;;;;4758849;30;19930;-84
2022/08/27 13:06:00;;;;;;;12.00;3.00;;;;;;;;;;4773985;30;20087;-85
2022/08/27 13:08:54;;;;;;;7.80;2.83;;;;;;;;;;4792922;29;21018;-84
2022/08/27 13:11:55;;;;;;;7.70;2.33;;;;;;;;;;4853783;28;20046;-85
2022/08/27 13:14:39;;;;;;;7.47;2.10;;;;;;;;;;4945010;28;20097;-85
2022/08/27 13:17:22;;;;;;;9.90;2.03;;;;;;;;;;4949612;28;20072;-85
2022/08/27 13:20:20;;;;;;;7.32;2.63;;;;;;;;;;4966706;28;20046;-86
2022/08/27 13:22:50;;;;;;;7.47;2.35;;;;;;;;;;4944913;28;20485;-86
2022/08/27 13:25:51;;;;;;;10.95;2.17;;;;;;;;;;4977874;28;20042;-86
2022/08/27 13:29:16;;;;;;;23.27;2.13;;;;;;;;;;4927123;29;20582;-87
2022/08/27 13:32:47;;;;;;;9.77;2.20;;;;;;;;;;4917172;29;20059;-87
2022/08/27 13:36:18;;;;;;;9.50;1.90;;;;;;;;;;4924389;29;20050;-87
2022/08/27 13:40:10;;;;;;;5.97;1.70;;;;;;;;;;4925224;29;20055;-87
2022/08/27 13:43:16;;;;;;;5.20;1.52;;;;;;;;;;4921654;29;20051;-87
2022/08/27 13:47:06;;;;;;;6.55;1.50;;;;;;;;;;4911731;28;20060;-88
2022/08/27 13:50:24;;;;;;;6.28;1.55;;;;;;;;;;4915648;29;20048;-85
2022/08/27 13:56:08;;;;;;;9.50;1.67;;;;;;;;;;4910635;29;20141;-86
2022/08/27 13:58:52;;;;;;;5.63;1.60;;;;;;;;;;4891183;28;20135;-87
2022/08/27 14:02:45;;;;;;;13.95;3.15;;;;;;;;;;4940387;28;20055;-87
2022/08/27 14:05:50;;;;;;;9.48;2.45;;;;;;;;;;4941184;29;20102;-87
2022/08/27 14:09:33;;;;;;;6.95;2.00;;;;;;;;;;4903703;29;20075;-86
2022/08/27 14:12:26;;;;;;;8.73;2.80;;;;;;;;;;4914357;29;20082;-85
2022/08/27 14:15:52;;;;;;;13.77;4.53;;;;;;;;;;4895425;29;20048;-86
2022/08/27 14:18:50;;;;;;;6.07;2.25;;;;;;;;;;4904786;29;20058;-86
2022/08/27 14:21:26;;;;;;;7.50;1.52;;;;;;;;;;4888708;29;20071;-86
2022/08/27 14:23:58;;;;;;;6.00;1.40;;;;;;;;;;4908698;29;20546;-86
2022/08/27 14:27:00;;;;;;;8.30;1.50;;;;;;;;;;4917649;29;20055;-85
2022/08/27 14:29:48;;;;;;;4.25;1.10;;;;;;;;;;4931353;29;20054;-86
2022/08/27 14:32:22;;;;;;;13.50;1.65;;;;;;;;;;4916049;29;20043;-85
2022/08/27 14:34:53;;;;;;;9.40;1.77;;;;;;;;;;4932070;29;20043;-86
2022/08/27 14:37:51;;;;;;;9.27;2.58;;;;;;;;;;4932343;29;20050;-86
2022/08/27 14:40:20;;;;;;;6.50;1.38;;;;;;;;;;4980136;28;20057;-86
2022/08/27 14:43:04;;;;;;;7.90;1.67;;;;;;;;;;4969742;28;20050;-85
2022/08/27 14:45:33;;;;;;;7.68;1.98;;;;;;;;;;4967506;28;20042;-87
2022/08/27 14:48:26;;;;;;;6.90;1.45;;;;;;;;;;4953922;28;20086;-87
2022/08/27 14:51:49;;;;;;;10.07;1.92;;;;;;;;;;4986769;28;20045;-86
2022/08/27 14:55:58;;;;;;;7.10;1.67;;;;;;;;;;4938796;28;20051;-87
2022/08/27 15:04:18;;;;;;;6.05;1.27;;;;;;;;;;4920177;28;20410;-83
2022/08/27 15:07:40;;;;;;;7.63;1.42;;;;;;;;;;4900874;29;20544;-85
2022/08/27 15:10:19;;;;;;;12.68;2.40;;;;;;;;;;4928029;29;20391;-85
2022/08/27 15:13:01;;;;;;;11.35;2.88;;;;;;;;;;4900098;29;20838;-84
2022/08/27 15:15:32;;;;;;;5.43;1.67;;;;;;;;;;4903446;29;20094;-85
2022/08/27 15:18:05;;;;;;;5.03;1.40;;;;;;;;;;4884665;29;20056;-84
2022/08/27 15:20:40;;;;;;;7.45;2.50;;;;;;;;;;4893415;29;20150;-84
2022/08/27 15:23:11;;;;;;;8.02;1.60;;;;;;;;;;4883085;29;20090;-85
2022/08/27 15:25:52;;;;;;;6.70;1.55;;;;;;;;;;4915239;29;20398;-84
2022/08/27 15:28:20;;;;;;;6.53;1.60;;;;;;;;;;4937244;29;20473;-85
2022/08/27 15:30:48;;;;;;;9.90;1.50;;;;;;;;;;4922932;28;20114;-85
2022/08/27 15:33:16;;;;;;;8.90;1.58;;;;;;;;;;4926989;28;20118;-85
2022/08/27 15:35:44;;;;;;;7.28;1.92;;;;;;;;;;4916200;29;20502;-84
2022/08/27 15:38:27;;;;;;;10.10;1.77;;;;;;;;;;4970131;28;20582;-84
2022/08/27 15:41:19;;;;;;;6.32;1.40;;;;;;;;;;4941941;28;20124;-84
2022/08/27 15:44:11;;;;;;;5.90;1.05;;;;;;;;;;4939669;28;20067;-84
2022/08/27 15:46:44;;;;;;;5.10;1.25;;;;;;;;;;4966654;28;20034;-86
2022/08/27 15:49:14;;;;;;;4.85;1.30;;;;;;;;;;4983694;28;20858;-85
2022/08/27 15:51:45;;;;;;;4.95;1.02;;;;;;;;;;4963877;28;20058;-85
2022/08/27 15:54:39;;;;;;;8.63;1.83;;;;;;;;;;4989860;28;20552;-86
2022/08/27 15:57:30;;;;;;;7.35;1.33;;;;;;;;;;4959969;28;20041;-86
2022/08/27 15:59:58;;;;;;;8.65;1.50;;;;;;;;;;4971251;28;20507;-85
2022/08/27 16:02:51;;;;;;;7.70;1.45;;;;;;;;;;4978789;28;20038;-86
2022/08/27 16:05:33;;;;;;;11.90;1.30;;;;;;;;;;4975237;28;20444;-86
2022/08/27 16:08:00;;;;;;;6.55;1.40;;;;;;;;;;4994179;28;20049;-85
2022/08/27 16:10:28;;;;;;;6.82;1.60;;;;;;;;;;4974679;28;20050;-86
2022/08/27 16:12:56;;;;;;;6.93;1.40;;;;;;;;;;4991690;28;20038;-85
2022/08/27 16:15:36;;;;;;;6.75;1.58;;;;;;;;;;4960013;28;20322;-85
2022/08/27 16:18:05;;;;;;;7.15;1.20;;;;;;;;;;4974280;28;20077;-85
2022/08/27 16:20:33;;;;;;;5.22;1.30;;;;;;;;;;4972950;28;20038;-85
2022/08/27 16:23:07;;;;;;;7.57;1.33;;;;;;;;;;4973845;28;20047;-85
2022/08/27 16:25:34;;;;;;;10.05;1.40;;;;;;;;;;4991912;28;20061;-85
2022/08/27 16:28:02;;;;;;;6.30;1.33;;;;;;;;;;4991995;28;20471;-85
2022/08/27 16:30:30;;;;;;;5.93;1.33;;;;;;;;;;4987725;28;20038;-85
2022/08/27 16:33:01;;;;;;;4.05;1.48;;;;;;;;;;4971491;28;20124;-84
2022/08/27 16:35:36;;;;;;;11.25;2.15;;;;;;;;;;4989636;28;20045;-85
2022/08/27 16:38:10;;;;;;;8.82;1.55;;;;;;;;;;4993222;28;20035;-84
2022/08/27 16:41:03;;;;;;;7.30;1.13;;;;;;;;;;4992782;28;20353;-85
2022/08/27 16:43:39;;;;;;;4.10;1.33;;;;;;;;;;4957746;28;20038;-86
2022/08/27 16:46:08;;;;;;;7.50;1.70;;;;;;;;;;4984189;28;20117;-85
2022/08/27 16:51:52;;;;;;;4.50;1.80;;;;;;;;;;4972141;28;20047;-85
2022/08/27 16:54:26;;;;;;;10.68;1.70;;;;;;;;;;4988394;28;20823;-85
2022/08/27 16:56:54;;;;;;;9.35;1.67;;;;;;;;;;4973995;28;20026;-86
2022/08/27 16:59:22;;;;;;;7.53;1.73;;;;;;;;;;4966083;28;20408;-86
2022/08/27 17:01:52;;;;;;;9.23;1.75;;;;;;;;;;4945506;28;20150;-86
2022/08/27 17:04:38;;;;;;;6.10;1.45;;;;;;;;;;4964684;28;20522;-86
2022/08/27 17:07:51;;;;;;;13.63;2.40;;;;;;;;;;4940592;29;21195;-84
2022/08/27 17:10:20;;;;;;;7.95;1.60;;;;;;;;;;4911013;29;20062;-85
2022/08/27 17:12:49;;;;;;;11.20;2.47;;;;;;;;;;4948155;28;20051;-88
2022/08/27 17:15:25;;;;;;;9.07;2.33;;;;;;;;;;4930821;29;20519;-86
2022/08/27 17:18:13;;;;;;;4.00;1.40;;;;;;;;;;4931629;28;20137;-86
2022/08/27 17:22:27;;;;;;;10.45;1.83;;;;;;;;;;4936720;28;20183;-84
2022/08/27 17:26:15;;;;;;;7.68;1.80;;;;;;;;;;4939236;29;20043;-84
2022/08/27 17:28:53;;;;;;;10.60;2.00;;;;;;;;;;4919551;29;20047;-84
2022/08/27 17:31:33;;;;;;;7.55;2.30;;;;;;;;;;4941464;28;20050;-83
2022/08/27 17:34:00;;;;;;;5.30;1.40;;;;;;;;;;4942527;28;20082;-84
2022/08/27 17:36:32;;;;;;;11.43;1.95;;;;;;;;;;4945938;28;20102;-83
2022/08/27 17:39:01;;;;;;;5.38;1.67;;;;;;;;;;4976631;28;20156;-84
2022/08/27 17:41:35;;;;;;;8.70;1.85;;;;;;;;;;4971382;28;20034;-83
2022/08/27 17:44:12;;;;;;;10.80;2.28;;;;;;;;;;4993890;28;20046;-83
2022/08/27 17:46:40;;;;;;;7.88;2.00;;;;;;;;;;4991688;28;20038;-83
2022/08/27 17:49:08;;;;;;;8.80;2.65;;;;;;;;;;4976770;28;20049;-83
2022/08/27 17:51:40;;;;;;;10.10;2.08;;;;;;;;;;4959092;28;20046;-84
2022/08/27 17:54:39;;;;;;;9.02;2.05;;;;;;;;;;4988305;28;20550;-84
2022/08/27 17:57:16;;;;;;;9.43;2.05;;;;;;;;;;4992667;28;20069;-84
2022/08/27 18:02:44;;;;;;;14.32;2.38;;;;;;;;;;4986117;28;20052;-83
2022/08/27 18:05:14;;;;;;;9.18;1.92;;;;;;;;;;4971680;28;20134;-84
2022/08/27 18:07:43;;;;;;;6.18;1.90;;;;;;;;;;4985241;28;20043;-84
2022/08/27 18:10:18;;;;;;;10.90;2.35;;;;;;;;;;4966014;28;20931;-84
2022/08/27 18:12:52;;;;;;;7.90;1.88;;;;;;;;;;4963634;28;20062;-84
2022/08/27 18:15:23;;;;;;;11.45;2.28;;;;;;;;;;4965610;28;20060;-84
2022/08/27 18:17:51;;;;;;;7.05;1.85;;;;;;;;;;4962971;28;20579;-83
2022/08/27 18:20:26;;;;;;;15.63;2.40;;;;;;;;;;4944907;28;20712;-83
2022/08/27 18:22:55;;;;;;;13.13;2.50;;;;;;;;;;4983613;28;20053;-83
2022/08/27 18:25:32;;;;;;;10.88;2.58;;;;;;;;;;4962615;28;20161;-84
2022/08/27 18:28:29;;;;;;;10.45;2.20;;;;;;;;;;4964000;28;20046;-83
2022/08/27 18:30:59;;;;;;;10.85;2.53;;;;;;;;;;4980496;28;20147;-84
2022/08/27 18:33:36;;;;;;;22.35;7.85;;;;;;;;;;4993393;28;20050;-83
2022/08/27 18:39:19;;;;;;;13.35;3.13;;;;;;;;;;4996599;28;20046;-83
2022/08/27 18:43:11;;;;;;;12.52;2.58;;;;;;;;;;4946028;28;20258;-84
2022/08/27 18:47:44;;;;;;;9.70;2.58;;;;;;;;;;4893335;29;20051;-83
2022/08/27 18:50:32;;;;;;;10.00;2.33;;;;;;;;;;4896817;29;20071;-84
2022/08/27 18:53:35;;;;;;;8.70;2.33;;;;;;;;;;4896896;29;20067;-85
2022/08/27 18:56:22;;;;;;;7.53;2.00;;;;;;;;;;4896763;29;20159;-84
2022/08/27 19:00:28;;;;;;;9.48;2.47;;;;;;;;;;4883944;29;20522;-85
2022/08/27 19:04:17;;;;;;;6.88;2.03;;;;;;;;;;4896422;29;20087;-83
2022/08/27 19:07:12;;;;;;;10.30;2.33;;;;;;;;;;4881286;29;20064;-84
2022/08/27 19:09:59;;;;;;;8.48;2.45;;;;;;;;;;4874858;29;20137;-86
2022/08/27 19:12:26;;;;;;;11.68;2.50;;;;;;;;;;4873160;29;20068;-85
2022/08/27 19:15:03;;;;;;;8.38;2.03;;;;;;;;;;4922013;29;20064;-85
2022/08/27 19:17:48;;;;;;;11.13;2.60;;;;;;;;;;4932760;29;20075;-86
2022/08/27 19:20:40;;;;;;;14.70;3.17;;;;;;;;;;4946436;28;20052;-85
2022/08/27 19:23:25;;;;;;;11.27;2.80;;;;;;;;;;4905259;29;20056;-86
2022/08/27 19:26:45;;;;;;;11.95;2.97;;;;;;;;;;4933994;29;20079;-85
2022/08/27 19:29:56;;;;;;;10.90;3.28;;;;;;;;;;4949373;28;20174;-84
2022/08/27 19:33:06;;;;;;;11.43;2.55;;;;;;;;;;4928289;29;20170;-84
2022/08/27 19:37:13;;;;;;;13.68;3.03;;;;;;;;;;4935724;28;20048;-85
2022/08/27 19:41:11;;;;;;;13.30;3.35;;;;;;;;;;4914522;29;20648;-85
2022/08/27 19:45:29;;;;;;;11.32;2.75;;;;;;;;;;4938931;28;20055;-84
2022/08/27 19:49:58;;;;;;;11.07;2.80;;;;;;;;;;4907862;29;20127;-85
2022/08/27 20:35:03;;;;;;;6.47;1.95;;;;;;;;;;4951488;28;20050;-84
2022/08/27 21:01:49;;;;;;;16.25;3.60;;;;;;;;;;4862775;29;20056;-85
2022/08/27 21:04:57;;;;;;;9.30;2.58;;;;;;;;;;4845599;29;20081;-84
2022/08/27 21:07:58;;;;;;;9.50;2.80;;;;;;;;;;4857697;29;20056;-84
2022/08/27 21:11:14;;;;;;;10.90;2.97;;;;;;;;;;4908032;29;20090;-83
2022/08/27 21:14:35;;;;;;;;;;;;;;;;;;4860859;29;20070;-84
2022/08/27 21:17:44;;;;;;;12.38;2.92;;;;;;;;;;4869569;29;20079;-84
2022/08/27 21:21:56;;;;;;;10.93;2.65;;;;;;;;;;4856943;29;20057;-85
2022/08/27 21:24:57;;;;;;;10.13;2.88;;;;;;;;;;4862077;29;20112;-86
2022/08/27 21:28:20;;;;;;;11.98;3.08;;;;;;;;;;4850901;29;20067;-86
2022/08/27 21:31:54;;;;;;;10.30;2.83;;;;;;;;;;4820831;29;20115;-84
2022/08/27 21:34:22;;;;;;;15.05;3.10;;;;;;;;;;4830973;29;20065;-84